sensor_id;sensor_type;location;lat;lon;timestamp;temperature;humidity
68943;DHT22;60852;52.190;4.422;2023-12-04T00:02:20;3.43;82.68
68943;DHT22;60852;52.190;4.422;2023-12-04T00:04:46;3.45;82.75
68943;DHT22;60852;52.190;4.422;2023-12-04T00:07:11;3.49;82.76
68943;DHT22;60852;52.190;4.422;2023-12-04T00:09:37;3.46;82.61
68943;DHT22;60852;52.190;4.422;2023-12-04T00:12:02;3.42;82.79
68943;DHT22;60852;52.190;4.422;2023-12-04T00:14:28;3.45;82.70
68943;DHT22;60852;52.190;4.422;2023-12-04T00:16:53;3.48;82.77
68943;DHT22;60852;52.190;4.422;2023-12-04T00:19:19;3.46;82.90
68943;DHT22;60852;52.190;4.422;2023-12-04T00:21:44;3.46;82.80
68943;DHT22;60852;52.190;4.422;2023-12-04T00:24:09;3.45;82.87
68943;DHT22;60852;52.190;4.422;2023-12-04T00:26:35;3.49;82.77
68943;DHT22;60852;52.190;4.422;2023-12-04T00:29:00;3.46;82.84
68943;DHT22;60852;52.190;4.422;2023-12-04T00:31:26;3.51;83.12
68943;DHT22;60852;52.190;4.422;2023-12-04T00:33:51;3.49;82.93
68943;DHT22;60852;52.190;4.422;2023-12-04T00:36:17;3.51;83.05
68943;DHT22;60852;52.190;4.422;2023-12-04T00:38:44;3.55;83.05
68943;DHT22;60852;52.190;4.422;2023-12-04T00:41:11;3.51;82.96
68943;DHT22;60852;52.190;4.422;2023-12-04T00:43:36;3.46;83.11
68943;DHT22;60852;52.190;4.422;2023-12-04T00:46:02;3.51;83.08
68943;DHT22;60852;52.190;4.422;2023-12-04T00:48:28;3.58;83.17
68943;DHT22;60852;52.190;4.422;2023-12-04T00:50:54;3.59;82.84
68943;DHT22;60852;52.190;4.422;2023-12-04T00:53:19;3.58;82.80
68943;DHT22;60852;52.190;4.422;2023-12-04T00:55:45;3.58;82.75
68943;DHT22;60852;52.190;4.422;2023-12-04T00:58:10;3.56;82.73
68943;DHT22;60852;52.190;4.422;2023-12-04T01:00:36;3.58;82.74
68943;DHT22;60852;52.190;4.422;2023-12-04T01:03:01;3.59;82.88
68943;DHT22;60852;52.190;4.422;2023-12-04T01:05:27;3.59;82.72
68943;DHT22;60852;52.190;4.422;2023-12-04T01:07:53;3.59;82.67
68943;DHT22;60852;52.190;4.422;2023-12-04T01:10:18;3.60;82.74
68943;DHT22;60852;52.190;4.422;2023-12-04T01:12:44;3.59;82.76
68943;DHT22;60852;52.190;4.422;2023-12-04T01:15:09;3.62;82.74
68943;DHT22;60852;52.190;4.422;2023-12-04T01:17:35;3.59;82.47
68943;DHT22;60852;52.190;4.422;2023-12-04T01:20:01;3.58;82.66
68943;DHT22;60852;52.190;4.422;2023-12-04T01:22:26;3.60;82.50
68943;DHT22;60852;52.190;4.422;2023-12-04T01:24:52;3.52;82.44
68943;DHT22;60852;52.190;4.422;2023-12-04T01:27:17;3.54;82.40
68943;DHT22;60852;52.190;4.422;2023-12-04T01:29:43;3.51;82.07
68943;DHT22;60852;52.190;4.422;2023-12-04T01:32:08;3.52;81.88
68943;DHT22;60852;52.190;4.422;2023-12-04T01:34:33;3.52;82.13
68943;DHT22;60852;52.190;4.422;2023-12-04T01:36:59;3.55;82.14
68943;DHT22;60852;52.190;4.422;2023-12-04T01:39:24;3.62;81.99
68943;DHT22;60852;52.190;4.422;2023-12-04T01:41:50;3.58;81.79
68943;DHT22;60852;52.190;4.422;2023-12-04T01:44:15;3.55;81.90
68943;DHT22;60852;52.190;4.422;2023-12-04T01:46:42;3.55;81.85
68943;DHT22;60852;52.190;4.422;2023-12-04T01:49:08;3.55;81.76
68943;DHT22;60852;52.190;4.422;2023-12-04T01:51:34;3.56;81.65
68943;DHT22;60852;52.190;4.422;2023-12-04T01:54:03;3.56;81.64
68943;DHT22;60852;52.190;4.422;2023-12-04T01:56:30;3.63;81.49
68943;DHT22;60852;52.190;4.422;2023-12-04T01:58:56;3.65;81.50
68943;DHT22;60852;52.190;4.422;2023-12-04T02:01:22;3.62;81.28
68943;DHT22;60852;52.190;4.422;2023-12-04T02:03:49;3.58;81.25
68943;DHT22;60852;52.190;4.422;2023-12-04T02:06:16;3.59;81.29
68943;DHT22;60852;52.190;4.422;2023-12-04T02:08:42;3.60;81.09
68943;DHT22;60852;52.190;4.422;2023-12-04T02:11:08;3.58;80.74
68943;DHT22;60852;52.190;4.422;2023-12-04T02:13:33;3.52;80.63
68943;DHT22;60852;52.190;4.422;2023-12-04T02:16:03;3.49;81.10
68943;DHT22;60852;52.190;4.422;2023-12-04T02:18:33;3.49;81.16
68943;DHT22;60852;52.190;4.422;2023-12-04T02:21:00;3.48;80.85
68943;DHT22;60852;52.190;4.422;2023-12-04T02:23:27;3.48;80.86
68943;DHT22;60852;52.190;4.422;2023-12-04T02:25:59;3.43;80.87
68943;DHT22;60852;52.190;4.422;2023-12-04T02:28:31;3.39;80.71
68943;DHT22;60852;52.190;4.422;2023-12-04T02:30:59;3.38;80.72
68943;DHT22;60852;52.190;4.422;2023-12-04T02:33:28;3.34;80.85
68943;DHT22;60852;52.190;4.422;2023-12-04T02:35:56;3.35;80.74
68943;DHT22;60852;52.190;4.422;2023-12-04T02:38:23;3.31;80.74
68943;DHT22;60852;52.190;4.422;2023-12-04T02:40:49;3.38;80.95
68943;DHT22;60852;52.190;4.422;2023-12-04T02:43:15;3.32;80.63
68943;DHT22;60852;52.190;4.422;2023-12-04T02:45:40;3.34;80.67
68943;DHT22;60852;52.190;4.422;2023-12-04T02:48:06;3.34;80.41
68943;DHT22;60852;52.190;4.422;2023-12-04T02:50:31;3.39;80.44
68943;DHT22;60852;52.190;4.422;2023-12-04T02:52:57;3.46;80.38
68943;DHT22;60852;52.190;4.422;2023-12-04T02:55:22;3.46;79.93
68943;DHT22;60852;52.190;4.422;2023-12-04T02:57:48;3.43;80.18
68943;DHT22;60852;52.190;4.422;2023-12-04T03:00:13;3.48;80.14
68943;DHT22;60852;52.190;4.422;2023-12-04T03:02:39;3.54;79.95
68943;DHT22;60852;52.190;4.422;2023-12-04T03:05:04;3.51;79.85
68943;DHT22;60852;52.190;4.422;2023-12-04T03:07:30;3.46;79.53
68943;DHT22;60852;52.190;4.422;2023-12-04T03:09:55;3.51;79.66
68943;DHT22;60852;52.190;4.422;2023-12-04T03:12:21;3.51;79.60
68943;DHT22;60852;52.190;4.422;2023-12-04T03:14:46;3.52;79.44
68943;DHT22;60852;52.190;4.422;2023-12-04T03:17:12;3.49;79.32
68943;DHT22;60852;52.190;4.422;2023-12-04T03:19:38;3.48;79.35
68943;DHT22;60852;52.190;4.422;2023-12-04T03:22:03;3.42;78.82
68943;DHT22;60852;52.190;4.422;2023-12-04T03:24:30;3.40;79.35
68943;DHT22;60852;52.190;4.422;2023-12-04T03:26:55;3.34;79.26
68943;DHT22;60852;52.190;4.422;2023-12-04T03:29:21;3.36;79.09
68943;DHT22;60852;52.190;4.422;2023-12-04T03:31:46;3.38;78.89
68943;DHT22;60852;52.190;4.422;2023-12-04T03:34:11;3.39;79.19
68943;DHT22;60852;52.190;4.422;2023-12-04T03:36:37;3.38;78.88
68943;DHT22;60852;52.190;4.422;2023-12-04T03:39:02;3.35;78.86
68943;DHT22;60852;52.190;4.422;2023-12-04T03:41:28;3.34;79.11
68943;DHT22;60852;52.190;4.422;2023-12-04T03:43:53;3.38;79.05
68943;DHT22;60852;52.190;4.422;2023-12-04T03:46:19;3.40;79.06
68943;DHT22;60852;52.190;4.422;2023-12-04T03:48:45;3.46;78.87
68943;DHT22;60852;52.190;4.422;2023-12-04T03:51:10;3.45;78.56
68943;DHT22;60852;52.190;4.422;2023-12-04T03:53:36;3.46;78.52
68943;DHT22;60852;52.190;4.422;2023-12-04T03:56:01;3.51;78.47
68943;DHT22;60852;52.190;4.422;2023-12-04T03:58:27;3.43;78.13
68943;DHT22;60852;52.190;4.422;2023-12-04T04:00:52;3.45;78.34
68943;DHT22;60852;52.190;4.422;2023-12-04T04:03:18;3.40;78.20
68943;DHT22;60852;52.190;4.422;2023-12-04T04:05:43;3.42;77.96
68943;DHT22;60852;52.190;4.422;2023-12-04T04:08:09;3.43;78.05
68943;DHT22;60852;52.190;4.422;2023-12-04T04:10:34;3.42;78.03
68943;DHT22;60852;52.190;4.422;2023-12-04T04:13:00;3.43;77.98
68943;DHT22;60852;52.190;4.422;2023-12-04T04:15:26;3.46;77.76
68943;DHT22;60852;52.190;4.422;2023-12-04T04:17:51;3.48;77.38
68943;DHT22;60852;52.190;4.422;2023-12-04T04:20:17;3.45;77.41
68943;DHT22;60852;52.190;4.422;2023-12-04T04:22:43;3.45;77.30
68943;DHT22;60852;52.190;4.422;2023-12-04T04:25:09;3.45;77.49
68943;DHT22;60852;52.190;4.422;2023-12-04T04:27:35;3.43;77.25
68943;DHT22;60852;52.190;4.422;2023-12-04T04:30:02;3.45;77.21
68943;DHT22;60852;52.190;4.422;2023-12-04T04:32:28;3.38;77.03
68943;DHT22;60852;52.190;4.422;2023-12-04T04:34:53;3.38;76.93
68943;DHT22;60852;52.190;4.422;2023-12-04T04:37:19;3.36;76.85
68943;DHT22;60852;52.190;4.422;2023-12-04T04:39:45;3.39;76.73
68943;DHT22;60852;52.190;4.422;2023-12-04T04:42:11;3.45;76.93
68943;DHT22;60852;52.190;4.422;2023-12-04T04:44:36;3.45;76.89
68943;DHT22;60852;52.190;4.422;2023-12-04T04:47:02;3.40;76.61
68943;DHT22;60852;52.190;4.422;2023-12-04T04:49:27;3.40;76.73
68943;DHT22;60852;52.190;4.422;2023-12-04T04:51:53;3.43;76.79
68943;DHT22;60852;52.190;4.422;2023-12-04T04:54:18;3.42;76.69
68943;DHT22;60852;52.190;4.422;2023-12-04T04:56:44;3.46;76.62
68943;DHT22;60852;52.190;4.422;2023-12-04T04:59:09;3.46;76.44
68943;DHT22;60852;52.190;4.422;2023-12-04T05:01:35;3.46;76.46
68943;DHT22;60852;52.190;4.422;2023-12-04T05:04:01;3.46;76.40
68943;DHT22;60852;52.190;4.422;2023-12-04T05:06:27;3.42;76.31
68943;DHT22;60852;52.190;4.422;2023-12-04T05:08:52;3.48;76.43
68943;DHT22;60852;52.190;4.422;2023-12-04T05:11:18;3.48;76.05
68943;DHT22;60852;52.190;4.422;2023-12-04T05:13:47;3.49;75.80
68943;DHT22;60852;52.190;4.422;2023-12-04T05:16:13;3.43;75.37
68943;DHT22;60852;52.190;4.422;2023-12-04T05:18:39;3.38;75.72
68943;DHT22;60852;52.190;4.422;2023-12-04T05:21:11;3.42;75.93
68943;DHT22;60852;52.190;4.422;2023-12-04T05:23:39;3.45;76.00
68943;DHT22;60852;52.190;4.422;2023-12-04T05:26:06;3.43;75.62
68943;DHT22;60852;52.190;4.422;2023-12-04T05:28:32;3.40;75.76
68943;DHT22;60852;52.190;4.422;2023-12-04T05:30:57;3.43;75.70
68943;DHT22;60852;52.190;4.422;2023-12-04T05:33:23;3.39;75.62
68943;DHT22;60852;52.190;4.422;2023-12-04T05:35:49;3.40;75.75
68943;DHT22;60852;52.190;4.422;2023-12-04T05:38:16;3.42;75.50
68943;DHT22;60852;52.190;4.422;2023-12-04T05:40:42;3.48;75.44
68943;DHT22;60852;52.190;4.422;2023-12-04T05:43:07;3.45;75.41
68943;DHT22;60852;52.190;4.422;2023-12-04T05:45:32;3.46;75.46
68943;DHT22;60852;52.190;4.422;2023-12-04T05:47:58;3.45;75.19
68943;DHT22;60852;52.190;4.422;2023-12-04T05:50:24;3.43;75.56
68943;DHT22;60852;52.190;4.422;2023-12-04T05:52:50;3.46;75.47
68943;DHT22;60852;52.190;4.422;2023-12-04T05:55:16;3.43;75.38
68943;DHT22;60852;52.190;4.422;2023-12-04T05:57:41;3.46;75.54
68943;DHT22;60852;52.190;4.422;2023-12-04T06:00:07;3.49;75.38
68943;DHT22;60852;52.190;4.422;2023-12-04T06:02:39;3.51;75.24
68943;DHT22;60852;52.190;4.422;2023-12-04T06:05:06;3.45;75.31
68943;DHT22;60852;52.190;4.422;2023-12-04T06:07:31;3.39;75.50
68943;DHT22;60852;52.190;4.422;2023-12-04T06:09:57;3.38;75.55
68943;DHT22;60852;52.190;4.422;2023-12-04T06:12:22;3.43;75.61
68943;DHT22;60852;52.190;4.422;2023-12-04T06:14:48;3.40;75.30
68943;DHT22;60852;52.190;4.422;2023-12-04T06:17:13;3.40;75.53
68943;DHT22;60852;52.190;4.422;2023-12-04T06:19:39;3.43;75.50
68943;DHT22;60852;52.190;4.422;2023-12-04T06:22:05;3.43;75.36
68943;DHT22;60852;52.190;4.422;2023-12-04T06:24:30;3.49;75.66
68943;DHT22;60852;52.190;4.422;2023-12-04T06:26:56;3.54;75.34
68943;DHT22;60852;52.190;4.422;2023-12-04T06:29:23;3.59;75.42
68943;DHT22;60852;52.190;4.422;2023-12-04T06:31:49;3.58;75.05
68943;DHT22;60852;52.190;4.422;2023-12-04T06:34:15;3.56;75.03
68943;DHT22;60852;52.190;4.422;2023-12-04T06:36:41;3.55;74.96
68943;DHT22;60852;52.190;4.422;2023-12-04T06:39:11;3.55;75.08
68943;DHT22;60852;52.190;4.422;2023-12-04T06:41:40;3.52;75.01
68943;DHT22;60852;52.190;4.422;2023-12-04T06:44:06;3.52;74.92
68943;DHT22;60852;52.190;4.422;2023-12-04T06:46:37;3.51;75.08
68943;DHT22;60852;52.190;4.422;2023-12-04T06:49:04;3.49;74.74
68943;DHT22;60852;52.190;4.422;2023-12-04T06:51:34;3.39;74.50
68943;DHT22;60852;52.190;4.422;2023-12-04T06:53:59;3.49;74.65
68943;DHT22;60852;52.190;4.422;2023-12-04T06:56:25;3.55;74.72
68943;DHT22;60852;52.190;4.422;2023-12-04T06:58:50;3.60;74.57
68943;DHT22;60852;52.190;4.422;2023-12-04T07:01:16;3.62;74.52
68943;DHT22;60852;52.190;4.422;2023-12-04T07:03:41;3.63;74.42
68943;DHT22;60852;52.190;4.422;2023-12-04T07:06:07;3.59;74.49
68943;DHT22;60852;52.190;4.422;2023-12-04T07:08:33;3.60;74.33
68943;DHT22;60852;52.190;4.422;2023-12-04T07:10:58;3.59;74.31
68943;DHT22;60852;52.190;4.422;2023-12-04T07:15:59;3.59;74.39
68943;DHT22;60852;52.190;4.422;2023-12-04T07:18:25;3.63;74.18
68943;DHT22;60852;52.190;4.422;2023-12-04T07:20:51;3.63;74.33
68943;DHT22;60852;52.190;4.422;2023-12-04T07:23:16;3.63;74.52
68943;DHT22;60852;52.190;4.422;2023-12-04T07:25:42;3.63;74.27
68943;DHT22;60852;52.190;4.422;2023-12-04T07:28:07;3.59;74.30
68943;DHT22;60852;52.190;4.422;2023-12-04T07:30:33;3.59;74.26
68943;DHT22;60852;52.190;4.422;2023-12-04T07:32:58;3.63;74.44
68943;DHT22;60852;52.190;4.422;2023-12-04T07:35:25;3.66;74.24
68943;DHT22;60852;52.190;4.422;2023-12-04T07:37:51;3.70;73.99
68943;DHT22;60852;52.190;4.422;2023-12-04T07:40:17;3.70;73.74
68943;DHT22;60852;52.190;4.422;2023-12-04T07:42:43;3.67;73.53
68943;DHT22;60852;52.190;4.422;2023-12-04T07:45:09;3.70;73.47
68943;DHT22;60852;52.190;4.422;2023-12-04T07:47:36;3.73;73.70
68943;DHT22;60852;52.190;4.422;2023-12-04T07:50:01;3.73;73.71
68943;DHT22;60852;52.190;4.422;2023-12-04T07:52:26;3.76;73.53
68943;DHT22;60852;52.190;4.422;2023-12-04T07:54:52;3.76;73.13
68943;DHT22;60852;52.190;4.422;2023-12-04T07:57:18;3.82;73.10
68943;DHT22;60852;52.190;4.422;2023-12-04T07:59:44;3.89;72.98
68943;DHT22;60852;52.190;4.422;2023-12-04T08:02:10;3.90;72.82
68943;DHT22;60852;52.190;4.422;2023-12-04T08:04:35;3.90;72.40
68943;DHT22;60852;52.190;4.422;2023-12-04T08:07:01;3.93;72.67
68943;DHT22;60852;52.190;4.422;2023-12-04T08:09:27;3.96;72.66
68943;DHT22;60852;52.190;4.422;2023-12-04T08:11:53;3.93;72.37
68943;DHT22;60852;52.190;4.422;2023-12-04T08:14:18;4.00;72.54
68943;DHT22;60852;52.190;4.422;2023-12-04T08:16:43;3.90;72.14
68943;DHT22;60852;52.190;4.422;2023-12-04T08:19:09;3.85;72.35
68943;DHT22;60852;52.190;4.422;2023-12-04T08:21:34;3.91;72.44
68943;DHT22;60852;52.190;4.422;2023-12-04T08:24:00;3.90;72.17
68943;DHT22;60852;52.190;4.422;2023-12-04T08:26:25;3.86;72.21
68943;DHT22;60852;52.190;4.422;2023-12-04T08:28:52;3.86;72.36
68943;DHT22;60852;52.190;4.422;2023-12-04T08:31:17;3.90;72.32
68943;DHT22;60852;52.190;4.422;2023-12-04T08:33:43;3.93;72.27
68943;DHT22;60852;52.190;4.422;2023-12-04T08:36:11;3.87;72.20
68943;DHT22;60852;52.190;4.422;2023-12-04T08:38:37;3.96;72.25
68943;DHT22;60852;52.190;4.422;2023-12-04T08:41:03;3.98;72.00
68943;DHT22;60852;52.190;4.422;2023-12-04T08:43:29;3.93;72.26
68943;DHT22;60852;52.190;4.422;2023-12-04T08:45:55;3.89;72.17
68943;DHT22;60852;52.190;4.422;2023-12-04T08:48:20;3.86;72.18
68943;DHT22;60852;52.190;4.422;2023-12-04T08:50:46;3.90;72.13
68943;DHT22;60852;52.190;4.422;2023-12-04T08:53:12;4.00;72.15
68943;DHT22;60852;52.190;4.422;2023-12-04T08:55:37;4.01;72.17
68943;DHT22;60852;52.190;4.422;2023-12-04T08:58:03;4.03;71.82
68943;DHT22;60852;52.190;4.422;2023-12-04T09:00:29;3.96;71.40
68943;DHT22;60852;52.190;4.422;2023-12-04T09:02:54;3.96;71.44
68943;DHT22;60852;52.190;4.422;2023-12-04T09:05:21;3.97;71.52
68943;DHT22;60852;52.190;4.422;2023-12-04T09:07:46;3.96;71.38
68943;DHT22;60852;52.190;4.422;2023-12-04T09:10:11;4.03;71.47
68943;DHT22;60852;52.190;4.422;2023-12-04T09:12:37;3.98;71.13
68943;DHT22;60852;52.190;4.422;2023-12-04T09:15:04;4.08;71.37
68943;DHT22;60852;52.190;4.422;2023-12-04T09:17:31;4.08;70.88
68943;DHT22;60852;52.190;4.422;2023-12-04T09:19:56;4.03;70.65
68943;DHT22;60852;52.190;4.422;2023-12-04T09:22:22;4.01;70.05
68943;DHT22;60852;52.190;4.422;2023-12-04T09:24:47;4.03;70.16
68943;DHT22;60852;52.190;4.422;2023-12-04T09:27:12;4.06;70.27
68943;DHT22;60852;52.190;4.422;2023-12-04T09:29:38;4.11;70.21
68943;DHT22;60852;52.190;4.422;2023-12-04T09:32:03;4.03;70.16
68943;DHT22;60852;52.190;4.422;2023-12-04T09:34:29;4.08;70.04
68943;DHT22;60852;52.190;4.422;2023-12-04T09:36:54;4.07;70.23
68943;DHT22;60852;52.190;4.422;2023-12-04T09:39:20;4.11;70.03
68943;DHT22;60852;52.190;4.422;2023-12-04T09:41:46;4.10;70.09
68943;DHT22;60852;52.190;4.422;2023-12-04T09:44:12;4.21;70.21
68943;DHT22;60852;52.190;4.422;2023-12-04T09:46:38;4.16;69.80
68943;DHT22;60852;52.190;4.422;2023-12-04T09:49:04;4.20;69.91
68943;DHT22;60852;52.190;4.422;2023-12-04T09:51:30;4.17;69.68
68943;DHT22;60852;52.190;4.422;2023-12-04T09:53:57;4.20;69.44
68943;DHT22;60852;52.190;4.422;2023-12-04T09:56:25;4.25;69.49
68943;DHT22;60852;52.190;4.422;2023-12-04T09:58:59;4.31;69.53
68943;DHT22;60852;52.190;4.422;2023-12-04T10:01:29;4.18;69.28
68943;DHT22;60852;52.190;4.422;2023-12-04T10:03:57;4.21;69.58
68943;DHT22;60852;52.190;4.422;2023-12-04T10:06:26;4.22;69.48
68943;DHT22;60852;52.190;4.422;2023-12-04T10:08:53;4.17;69.26
68943;DHT22;60852;52.190;4.422;2023-12-04T10:11:19;4.21;69.17
68943;DHT22;60852;52.190;4.422;2023-12-04T10:13:44;4.18;69.27
68943;DHT22;60852;52.190;4.422;2023-12-04T10:16:09;4.28;69.38
68943;DHT22;60852;52.190;4.422;2023-12-04T10:18:35;4.30;69.07
68943;DHT22;60852;52.190;4.422;2023-12-04T10:21:00;4.31;68.87
68943;DHT22;60852;52.190;4.422;2023-12-04T10:23:37;4.34;68.79
68943;DHT22;60852;52.190;4.422;2023-12-04T10:26:03;4.37;68.57
68943;DHT22;60852;52.190;4.422;2023-12-04T10:28:30;4.41;68.45
68943;DHT22;60852;52.190;4.422;2023-12-04T10:30:56;4.41;68.42
68943;DHT22;60852;52.190;4.422;2023-12-04T10:33:25;4.37;68.08
68943;DHT22;60852;52.190;4.422;2023-12-04T10:35:54;4.40;68.04
68943;DHT22;60852;52.190;4.422;2023-12-04T10:38:21;4.47;67.98
68943;DHT22;60852;52.190;4.422;2023-12-04T10:40:46;4.42;67.51
68943;DHT22;60852;52.190;4.422;2023-12-04T10:45:43;4.45;67.86
68943;DHT22;60852;52.190;4.422;2023-12-04T10:48:12;4.59;67.69
68943;DHT22;60852;52.190;4.422;2023-12-04T10:50:40;4.62;67.03
68943;DHT22;60852;52.190;4.422;2023-12-04T10:53:12;4.54;66.84
68943;DHT22;60852;52.190;4.422;2023-12-04T10:55:39;4.65;67.21
68943;DHT22;60852;52.190;4.422;2023-12-04T10:58:12;4.77;66.89
68943;DHT22;60852;52.190;4.422;2023-12-04T11:00:43;4.96;67.30
68943;DHT22;60852;52.190;4.422;2023-12-04T11:03:12;4.85;66.47
68943;DHT22;60852;52.190;4.422;2023-12-04T11:05:40;4.89;66.69
68943;DHT22;60852;52.190;4.422;2023-12-04T11:08:11;5.01;66.44
68943;DHT22;60852;52.190;4.422;2023-12-04T11:10:53;5.00;66.30
68943;DHT22;60852;52.190;4.422;2023-12-04T11:13:27;5.03;65.43
68943;DHT22;60852;52.190;4.422;2023-12-04T11:16:02;5.05;65.82
68943;DHT22;60852;52.190;4.422;2023-12-04T11:18:31;5.06;65.84
68943;DHT22;60852;52.190;4.422;2023-12-04T11:21:02;5.03;65.70
68943;DHT22;60852;52.190;4.422;2023-12-04T11:23:30;4.95;65.51
68943;DHT22;60852;52.190;4.422;2023-12-04T11:25:57;4.95;65.87
68943;DHT22;60852;52.190;4.422;2023-12-04T11:28:25;4.85;66.13
68943;DHT22;60852;52.190;4.422;2023-12-04T11:30:53;4.77;66.20
68943;DHT22;60852;52.190;4.422;2023-12-04T11:33:20;4.71;66.63
68943;DHT22;60852;52.190;4.422;2023-12-04T11:35:45;4.75;67.16
68943;DHT22;60852;52.190;4.422;2023-12-04T11:38:14;4.83;67.12
68943;DHT22;60852;52.190;4.422;2023-12-04T11:40:41;4.87;66.90
68943;DHT22;60852;52.190;4.422;2023-12-04T11:43:28;4.86;66.73
68943;DHT22;60852;52.190;4.422;2023-12-04T11:46:10;4.75;66.57
68943;DHT22;60852;52.190;4.422;2023-12-04T11:48:39;4.83;67.19
68943;DHT22;60852;52.190;4.422;2023-12-04T11:51:06;4.99;67.11
68943;DHT22;60852;52.190;4.422;2023-12-04T11:53:37;5.14;66.88
68943;DHT22;60852;52.190;4.422;2023-12-04T11:56:10;5.12;66.93
68943;DHT22;60852;52.190;4.422;2023-12-04T11:58:42;5.24;67.52
68943;DHT22;60852;52.190;4.422;2023-12-04T12:01:08;5.37;67.72
68943;DHT22;60852;52.190;4.422;2023-12-04T12:03:34;5.37;67.55
68943;DHT22;60852;52.190;4.422;2023-12-04T12:06:00;5.30;67.69
68943;DHT22;60852;52.190;4.422;2023-12-04T12:08:28;5.24;67.95
68943;DHT22;60852;52.190;4.422;2023-12-04T12:10:54;5.10;68.18
68943;DHT22;60852;52.190;4.422;2023-12-04T12:13:20;4.93;68.91
68943;DHT22;60852;52.190;4.422;2023-12-04T12:15:50;4.79;69.76
68943;DHT22;60852;52.190;4.422;2023-12-04T12:18:16;4.77;70.15
68943;DHT22;60852;52.190;4.422;2023-12-04T12:20:42;4.69;70.45
68943;DHT22;60852;52.190;4.422;2023-12-04T12:23:08;4.64;70.92
68943;DHT22;60852;52.190;4.422;2023-12-04T12:25:35;4.73;71.25
68943;DHT22;60852;52.190;4.422;2023-12-04T12:28:06;4.65;71.84
68943;DHT22;60852;52.190;4.422;2023-12-04T12:30:33;4.72;72.25
68943;DHT22;60852;52.190;4.422;2023-12-04T12:32:58;4.66;72.13
68943;DHT22;60852;52.190;4.422;2023-12-04T12:35:25;4.69;72.76
68943;DHT22;60852;52.190;4.422;2023-12-04T12:37:51;4.62;72.99
68943;DHT22;60852;52.190;4.422;2023-12-04T12:40:21;4.65;73.23
68943;DHT22;60852;52.190;4.422;2023-12-04T12:42:47;4.73;73.59
68943;DHT22;60852;52.190;4.422;2023-12-04T12:45:14;4.73;73.49
68943;DHT22;60852;52.190;4.422;2023-12-04T12:47:41;4.80;73.96
68943;DHT22;60852;52.190;4.422;2023-12-04T12:50:11;4.85;73.81
68943;DHT22;60852;52.190;4.422;2023-12-04T12:52:38;4.82;73.76
68943;DHT22;60852;52.190;4.422;2023-12-04T12:55:04;4.75;73.78
68943;DHT22;60852;52.190;4.422;2023-12-04T12:57:30;4.68;73.68
68943;DHT22;60852;52.190;4.422;2023-12-04T12:59:55;4.69;73.73
68943;DHT22;60852;52.190;4.422;2023-12-04T13:02:21;4.65;73.77
68943;DHT22;60852;52.190;4.422;2023-12-04T13:04:47;4.65;73.60
68943;DHT22;60852;52.190;4.422;2023-12-04T13:07:12;4.65;73.30
68943;DHT22;60852;52.190;4.422;2023-12-04T13:09:38;4.65;73.10
68943;DHT22;60852;52.190;4.422;2023-12-04T13:12:05;4.72;73.27
68943;DHT22;60852;52.190;4.422;2023-12-04T13:14:31;4.69;72.98
68943;DHT22;60852;52.190;4.422;2023-12-04T13:16:56;4.77;73.20
68943;DHT22;60852;52.190;4.422;2023-12-04T13:19:24;4.73;72.85
68943;DHT22;60852;52.190;4.422;2023-12-04T13:21:50;4.73;72.99
68943;DHT22;60852;52.190;4.422;2023-12-04T13:24:16;4.83;72.74
68943;DHT22;60852;52.190;4.422;2023-12-04T13:26:43;4.85;72.74
68943;DHT22;60852;52.190;4.422;2023-12-04T13:29:08;4.82;72.44
68943;DHT22;60852;52.190;4.422;2023-12-04T13:31:34;4.85;72.62
68943;DHT22;60852;52.190;4.422;2023-12-04T13:34:00;4.86;72.57
68943;DHT22;60852;52.190;4.422;2023-12-04T13:36:25;4.85;72.41
68943;DHT22;60852;52.190;4.422;2023-12-04T13:38:52;4.83;72.39
68943;DHT22;60852;52.190;4.422;2023-12-04T13:41:19;4.86;72.67
68943;DHT22;60852;52.190;4.422;2023-12-04T13:44:03;4.92;72.66
68943;DHT22;60852;52.190;4.422;2023-12-04T13:46:29;4.79;72.49
68943;DHT22;60852;52.190;4.422;2023-12-04T13:48:56;4.80;72.76
68943;DHT22;60852;52.190;4.422;2023-12-04T13:51:21;4.86;72.98
68943;DHT22;60852;52.190;4.422;2023-12-04T13:53:48;4.83;72.52
68943;DHT22;60852;52.190;4.422;2023-12-04T13:56:16;4.86;72.81
68943;DHT22;60852;52.190;4.422;2023-12-04T13:59:07;4.89;72.80
68943;DHT22;60852;52.190;4.422;2023-12-04T14:01:33;4.96;72.94
68943;DHT22;60852;52.190;4.422;2023-12-04T14:03:59;4.97;72.71
68943;DHT22;60852;52.190;4.422;2023-12-04T14:06:30;4.82;72.94
68943;DHT22;60852;52.190;4.422;2023-12-04T14:08:58;4.77;73.27
68943;DHT22;60852;52.190;4.422;2023-12-04T14:11:24;4.85;73.22
68943;DHT22;60852;52.190;4.422;2023-12-04T14:13:49;4.87;73.29
68943;DHT22;60852;52.190;4.422;2023-12-04T14:16:15;4.90;73.20
68943;DHT22;60852;52.190;4.422;2023-12-04T14:18:43;4.93;73.51
68943;DHT22;60852;52.190;4.422;2023-12-04T14:21:09;4.92;73.47
68943;DHT22;60852;52.190;4.422;2023-12-04T14:23:34;4.83;73.18
68943;DHT22;60852;52.190;4.422;2023-12-04T14:26:00;4.77;73.68
68943;DHT22;60852;52.190;4.422;2023-12-04T14:28:27;4.82;73.92
68943;DHT22;60852;52.190;4.422;2023-12-04T14:30:53;4.79;73.79
68943;DHT22;60852;52.190;4.422;2023-12-04T14:33:19;4.71;74.26
68943;DHT22;60852;52.190;4.422;2023-12-04T14:35:45;4.68;74.74
68943;DHT22;60852;52.190;4.422;2023-12-04T14:38:10;4.52;75.26
68943;DHT22;60852;52.190;4.422;2023-12-04T14:40:36;4.52;76.02
68943;DHT22;60852;52.190;4.422;2023-12-04T14:43:01;4.47;76.37
68943;DHT22;60852;52.190;4.422;2023-12-04T14:45:27;4.51;76.60
68943;DHT22;60852;52.190;4.422;2023-12-04T14:47:52;4.37;76.62
68943;DHT22;60852;52.190;4.422;2023-12-04T14:50:21;4.47;76.94
68943;DHT22;60852;52.190;4.422;2023-12-04T14:52:47;4.47;76.80
68943;DHT22;60852;52.190;4.422;2023-12-04T14:55:18;4.40;77.04
68943;DHT22;60852;52.190;4.422;2023-12-04T14:57:53;4.33;77.53
68943;DHT22;60852;52.190;4.422;2023-12-04T15:00:37;4.27;77.72
68943;DHT22;60852;52.190;4.422;2023-12-04T15:03:21;4.27;78.34
68943;DHT22;60852;52.190;4.422;2023-12-04T15:05:49;4.25;78.25
68943;DHT22;60852;52.190;4.422;2023-12-04T15:08:15;4.18;78.48
68943;DHT22;60852;52.190;4.422;2023-12-04T15:10:58;4.25;78.69
68943;DHT22;60852;52.190;4.422;2023-12-04T15:13:44;4.20;78.72
68943;DHT22;60852;52.190;4.422;2023-12-04T15:16:18;4.33;78.77
68943;DHT22;60852;52.190;4.422;2023-12-04T15:18:43;4.40;78.48
68943;DHT22;60852;52.190;4.422;2023-12-04T15:21:18;4.47;78.42
68943;DHT22;60852;52.190;4.422;2023-12-04T15:23:44;4.35;78.71
68943;DHT22;60852;52.190;4.422;2023-12-04T15:26:09;4.34;79.02
68943;DHT22;60852;52.190;4.422;2023-12-04T15:28:36;4.33;79.34
68943;DHT22;60852;52.190;4.422;2023-12-04T15:31:02;4.40;79.10
68943;DHT22;60852;52.190;4.422;2023-12-04T15:33:27;4.40;79.24
68943;DHT22;60852;52.190;4.422;2023-12-04T15:35:53;4.44;79.59
68943;DHT22;60852;52.190;4.422;2023-12-04T15:38:20;4.42;79.35
68943;DHT22;60852;52.190;4.422;2023-12-04T15:40:46;4.34;79.45
68943;DHT22;60852;52.190;4.422;2023-12-04T15:43:12;4.33;79.41
68943;DHT22;60852;52.190;4.422;2023-12-04T15:45:38;4.37;79.45
68943;DHT22;60852;52.190;4.422;2023-12-04T15:48:03;4.27;80.00